createdAt,value
2018-06-13T00:00:28.372Z,54.67
2018-06-13T00:03:01.260Z,54.20
2018-06-13T00:05:35.998Z,52.90
2018-06-13T00:08:09.443Z,61.43
2018-06-13T00:10:42.400Z,55.37
2018-06-13T00:13:15.350Z,50.07
2018-06-13T00:15:48.594Z,46.77
2018-06-13T00:18:22.157Z,46.97
2018-06-13T00:20:56.482Z,50.53
2018-06-13T00:23:29.321Z,42.57
2018-06-13T00:26:46.492Z,48.13
2018-06-13T00:29:19.017Z,39.57
2018-06-13T00:31:51.800Z,43.00
2018-06-13T00:34:24.543Z,39.57
2018-06-13T00:40:20.423Z,54.17
2018-06-13T00:42:53.190Z,56.60
2018-06-13T00:45:25.940Z,56.53
2018-06-13T00:47:59.798Z,47.97
2018-06-13T00:50:33.795Z,56.50
2018-06-13T00:53:07.444Z,53.00
2018-06-13T00:55:53.319Z,57.87
2018-06-13T00:58:35.178Z,51.70
2018-06-13T01:01:16.337Z,50.03
2018-06-13T01:03:52.678Z,58.73
2018-06-13T01:06:27.449Z,52.63
2018-06-13T01:09:02.021Z,56.43
2018-06-13T01:11:39.415Z,62.00
2018-06-13T01:14:13.579Z,52.30
2018-06-13T01:16:48.440Z,58.10
2018-06-13T01:19:21.881Z,52.13
2018-06-13T01:21:54.275Z,51.10
2018-06-13T01:24:26.784Z,53.93
2018-06-13T01:26:59.591Z,55.30
2018-06-13T01:29:41.529Z,58.13
2018-06-13T01:32:14.970Z,53.03
2018-06-13T01:34:47.909Z,52.57
2018-06-13T01:37:21.651Z,55.87
2018-06-13T01:39:54.312Z,59.90
2018-06-13T01:42:35.628Z,65.97
2018-06-13T01:45:09.612Z,57.47
2018-06-13T01:47:44.187Z,71.60
2018-06-13T01:50:17.134Z,74.37
2018-06-13T01:52:49.904Z,79.63
2018-06-13T01:55:24.706Z,73.00
2018-06-13T01:58:03.576Z,60.33
2018-06-13T02:00:39.296Z,67.00
2018-06-13T02:03:12.768Z,44.90
2018-06-13T02:05:47.223Z,49.53
2018-06-13T02:08:20.733Z,48.33
2018-06-13T02:10:54.097Z,40.50
2018-06-13T02:13:30.075Z,48.23
2018-06-13T02:16:02.761Z,53.80
2018-06-13T02:18:35.536Z,60.20
2018-06-13T02:21:08.303Z,59.53
2018-06-13T02:23:44.002Z,61.33
2018-06-13T02:26:16.722Z,62.57
2018-06-13T02:28:49.920Z,67.67
2018-06-13T02:31:25.381Z,62.10
2018-06-13T02:33:59.294Z,60.73
2018-06-13T02:36:34.095Z,66.93
2018-06-13T02:39:09.350Z,56.67
2018-06-13T02:41:45.198Z,50.80
2018-06-13T02:44:36.443Z,61.27
2018-06-13T02:47:09.162Z,67.63
2018-06-13T02:49:41.714Z,49.57
2018-06-13T02:52:14.442Z,54.50
2018-06-13T02:54:46.855Z,55.97
2018-06-13T02:57:19.558Z,51.00
2018-06-13T02:59:54.457Z,53.33
2018-06-13T03:02:28.151Z,55.87
2018-06-13T03:05:00.837Z,60.13
2018-06-13T03:07:33.475Z,52.77
2018-06-13T03:10:06.093Z,50.43
2018-06-13T03:12:39.072Z,50.37
2018-06-13T03:15:11.864Z,52.50
2018-06-13T03:17:46.149Z,51.77
2018-06-13T03:20:18.870Z,51.87
2018-06-13T03:22:52.065Z,58.10
2018-06-13T03:25:28.908Z,52.00
2018-06-13T03:28:02.300Z,43.23
2018-06-13T03:30:37.351Z,50.17
2018-06-13T03:33:12.649Z,45.50
2018-06-13T03:35:48.749Z,46.40
2018-06-13T03:38:25.933Z,42.03
2018-06-13T03:41:00.169Z,44.47
2018-06-13T03:43:35.814Z,31.83
2018-06-13T03:46:11.233Z,34.87
2018-06-13T03:48:47.635Z,33.60
2018-06-13T03:51:20.561Z,32.10
2018-06-13T03:53:53.460Z,37.13
2018-06-13T03:56:26.217Z,38.13
2018-06-13T03:58:58.980Z,39.90
2018-06-13T04:01:31.586Z,41.80
2018-06-13T04:04:04.152Z,37.43
2018-06-13T04:06:36.726Z,41.60
2018-06-13T04:09:10.994Z,42.90
2018-06-13T04:11:43.733Z,32.87
2018-06-13T04:14:16.408Z,40.37
2018-06-13T04:16:49.121Z,42.73
2018-06-13T04:19:21.806Z,38.73
2018-06-13T04:21:54.751Z,43.17
2018-06-13T04:24:27.405Z,43.27
2018-06-13T04:26:59.924Z,47.27
2018-06-13T04:29:33.493Z,48.67
2018-06-13T04:32:06.174Z,41.27
2018-06-13T04:34:38.721Z,36.33
2018-06-13T04:37:11.332Z,40.17
2018-06-13T04:39:44.216Z,39.50
2018-06-13T04:42:17.315Z,43.43
2018-06-13T04:44:50.266Z,41.17
2018-06-13T04:47:24.209Z,39.27
2018-06-13T04:49:56.910Z,44.27
2018-06-13T04:52:30.526Z,36.87
2018-06-13T04:55:03.213Z,38.13
2018-06-13T04:57:39.923Z,34.53
2018-06-13T05:00:12.764Z,31.90
2018-06-13T05:02:45.332Z,34.43
2018-06-13T05:05:17.909Z,31.93
2018-06-13T05:07:50.622Z,60.13
2018-06-13T05:10:23.203Z,46.60
2018-06-13T05:12:55.954Z,49.93
2018-06-13T05:15:28.768Z,71.67
2018-06-13T05:18:01.310Z,41.10
2018-06-13T05:20:33.953Z,53.07
2018-06-13T05:23:06.960Z,40.27
2018-06-13T05:25:39.582Z,45.60
2018-06-13T05:28:12.149Z,37.67
2018-06-13T05:30:44.861Z,45.30
2018-06-13T05:33:17.390Z,42.37
2018-06-13T05:35:49.821Z,42.27
2018-06-13T05:41:43.842Z,43.93
2018-06-13T05:44:16.878Z,50.37
2018-06-13T05:46:49.547Z,50.37
2018-06-13T05:49:22.236Z,45.77
2018-06-13T05:51:54.863Z,50.10
2018-06-13T05:54:28.201Z,51.50
2018-06-13T05:56:59.618Z,52.77
2018-06-13T05:59:32.226Z,64.73
2018-06-13T06:02:04.932Z,61.83
2018-06-13T06:04:37.828Z,57.27
2018-06-13T06:07:10.543Z,51.20
2018-06-13T06:09:43.252Z,59.63
2018-06-13T06:12:15.921Z,58.13
2018-06-13T06:14:48.655Z,48.63
2018-06-13T06:17:21.548Z,49.77
2018-06-13T06:19:54.277Z,44.83
2018-06-13T06:22:27.531Z,40.70
2018-06-13T06:25:00.120Z,40.33
2018-06-13T06:27:32.647Z,42.17
2018-06-13T06:30:05.403Z,43.87
2018-06-13T06:32:38.101Z,41.83
2018-06-13T06:35:09.395Z,42.20
2018-06-13T06:37:41.976Z,39.87
2018-06-13T06:40:14.577Z,47.77
2018-06-13T06:42:47.153Z,45.73
2018-06-13T06:45:19.798Z,44.67
2018-06-13T06:47:52.522Z,47.40
2018-06-13T06:50:25.199Z,41.00
2018-06-13T06:52:57.825Z,43.47
2018-06-13T06:55:30.616Z,41.53
2018-06-13T06:58:03.378Z,43.37
2018-06-13T07:00:36.036Z,35.70
2018-06-13T07:03:08.597Z,31.67
2018-06-13T07:05:41.206Z,32.70
2018-06-13T07:08:13.934Z,37.47
2018-06-13T07:10:46.697Z,37.30
2018-06-13T07:13:19.322Z,32.83
2018-06-13T07:15:51.969Z,28.93
2018-06-13T07:18:24.623Z,27.10
2018-06-13T07:20:57.181Z,28.93
2018-06-13T07:23:28.487Z,30.30
2018-06-13T07:26:01.137Z,32.53
2018-06-13T07:28:33.883Z,41.10
2018-06-13T07:31:06.767Z,36.40
2018-06-13T07:33:39.465Z,34.23
2018-06-13T07:36:12.131Z,45.83
2018-06-13T07:38:44.770Z,43.30
2018-06-13T07:41:17.377Z,37.20
2018-06-13T07:43:49.992Z,35.03
2018-06-13T07:46:22.638Z,35.73
2018-06-13T07:48:55.387Z,33.97
2018-06-13T07:51:28.039Z,29.60
2018-06-13T07:54:01.164Z,29.10
2018-06-13T07:56:33.818Z,27.53
2018-06-13T07:59:06.429Z,28.97
2018-06-13T08:05:10.343Z,29.10
2018-06-13T08:11:03.372Z,27.20
2018-06-13T08:13:35.781Z,29.13
2018-06-13T08:16:32.572Z,28.53
2018-06-13T08:19:04.817Z,28.73
2018-06-13T08:24:57.974Z,28.40
2018-06-13T08:27:30.346Z,33.30
2018-06-13T08:30:02.738Z,28.77
2018-06-13T08:32:35.173Z,30.57
2018-06-13T08:35:07.543Z,28.10
2018-06-13T08:37:39.879Z,27.50
2018-06-13T08:40:13.134Z,26.97
2018-06-13T08:42:45.556Z,22.73
2018-06-13T08:45:18.224Z,27.83
2018-06-13T08:48:14.157Z,31.43
2018-06-13T08:50:46.967Z,31.83
2018-06-13T08:53:19.263Z,22.50
2018-06-13T08:55:51.553Z,27.63
2018-06-13T08:58:23.800Z,30.83
2018-06-13T09:00:55.876Z,30.43
2018-06-13T09:03:28.000Z,33.13
2018-06-13T09:06:00.093Z,30.00
2018-06-13T09:08:32.966Z,33.53
2018-06-13T09:11:05.157Z,29.37
2018-06-13T09:13:38.743Z,28.93
2018-06-13T09:16:11.099Z,26.93
2018-06-13T09:18:43.266Z,28.77
2018-06-13T09:21:15.361Z,29.53
2018-06-13T09:23:47.581Z,31.27
2018-06-13T09:26:19.867Z,32.00
2018-06-13T09:28:52.093Z,35.03
2018-06-13T09:31:24.410Z,32.07
2018-06-13T09:33:56.814Z,36.00
2018-06-13T09:36:29.191Z,33.90
2018-06-13T09:39:01.609Z,24.50
2018-06-13T09:41:34.259Z,28.23
2018-06-13T09:44:27.144Z,25.87
2018-06-13T09:47:06.901Z,27.90
2018-06-13T09:52:53.728Z,33.17
2018-06-13T09:55:26.101Z,29.00
2018-06-13T09:57:58.394Z,35.43
2018-06-13T10:00:40.193Z,30.27
2018-06-13T10:03:12.717Z,34.17
2018-06-13T10:05:45.548Z,33.13
2018-06-13T10:08:17.790Z,35.13
2018-06-13T10:10:50.381Z,40.83
2018-06-13T10:13:22.937Z,43.60
2018-06-13T10:15:55.298Z,44.83
2018-06-13T10:18:46.141Z,53.50
2018-06-13T10:21:19.192Z,24.20
2018-06-13T10:27:16.815Z,18.67
2018-06-13T10:29:49.568Z,13.73
2018-06-13T10:32:22.861Z,5.80
2018-06-13T10:34:55.573Z,4.70
2018-06-13T10:37:28.006Z,7.40
2018-06-13T10:40:00.589Z,5.80
2018-06-13T10:42:33.200Z,5.03
2018-06-13T10:45:06.019Z,7.70
2018-06-13T10:47:38.576Z,7.13
2018-06-13T10:50:11.231Z,5.03
2018-06-13T10:52:43.964Z,5.60
2018-06-13T10:55:16.589Z,4.93
2018-06-13T10:57:49.112Z,10.70
2018-06-13T11:00:23.808Z,6.23
2018-06-13T11:02:56.344Z,5.00
2018-06-13T11:05:28.881Z,3.97
2018-06-13T11:08:01.331Z,5.93
2018-06-13T11:10:33.872Z,6.47
2018-06-13T11:13:06.439Z,4.33
2018-06-13T11:15:38.888Z,6.20
2018-06-13T11:18:11.409Z,8.13
2018-06-13T11:20:44.048Z,4.93
2018-06-13T11:23:16.620Z,8.23
2018-06-13T11:25:49.362Z,10.07
2018-06-13T11:28:21.929Z,7.37
2018-06-13T11:30:55.141Z,9.40
2018-06-13T11:33:27.724Z,7.87
2018-06-13T11:36:00.289Z,22.13
2018-06-13T11:38:32.957Z,10.10
2018-06-13T11:41:05.553Z,10.77
2018-06-13T11:43:38.206Z,8.87
2018-06-13T11:46:10.661Z,8.90
2018-06-13T11:48:43.210Z,10.30
2018-06-13T11:51:15.960Z,15.17
2018-06-13T11:53:48.591Z,11.80
2018-06-13T11:56:21.088Z,11.03
2018-06-13T11:58:53.657Z,14.53
2018-06-13T12:01:26.176Z,17.53
2018-06-13T12:03:58.723Z,8.40
2018-06-13T12:06:31.563Z,10.63
2018-06-13T12:09:05.024Z,9.23
2018-06-13T12:11:37.695Z,7.80
2018-06-13T12:14:10.286Z,10.67
2018-06-13T12:16:42.875Z,12.20
2018-06-13T12:19:15.316Z,6.23
2018-06-13T12:21:47.891Z,5.87
2018-06-13T12:24:20.678Z,9.10
2018-06-13T12:26:53.221Z,11.13
2018-06-13T12:29:26.058Z,13.40
2018-06-13T12:31:58.665Z,10.73
2018-06-13T12:34:34.366Z,11.50
2018-06-13T12:40:14.399Z,17.73
2018-06-13T12:42:46.889Z,17.60
2018-06-13T12:45:19.343Z,18.57
2018-06-13T12:47:51.842Z,19.37
2018-06-13T12:50:24.216Z,16.83
2018-06-13T12:52:57.053Z,17.07
2018-06-13T12:55:29.526Z,13.10
2018-06-13T12:58:02.312Z,14.80
2018-06-13T13:00:34.896Z,20.83
2018-06-13T13:03:07.484Z,13.93
2018-06-13T13:05:39.922Z,15.37
2018-06-13T13:08:12.302Z,15.93
2018-06-13T13:10:44.714Z,20.67
2018-06-13T13:13:17.956Z,19.60
2018-06-13T13:15:50.424Z,13.93
2018-06-13T13:18:22.913Z,21.40
2018-06-13T13:20:55.258Z,20.47
2018-06-13T13:23:27.880Z,24.67
2018-06-13T13:26:00.313Z,12.47
2018-06-13T13:28:32.797Z,16.30
2018-06-13T13:31:05.224Z,12.33
2018-06-13T13:33:37.791Z,17.73
2018-06-13T13:36:10.513Z,12.47
2018-06-13T13:38:42.892Z,16.30
2018-06-13T13:41:16.201Z,11.70
2018-06-13T13:47:10.004Z,22.00
2018-06-13T13:49:42.659Z,13.03
2018-06-13T13:52:15.207Z,7.20
2018-06-13T13:54:47.949Z,17.17
2018-06-13T13:57:20.786Z,12.93
2018-06-13T13:59:53.454Z,8.33
2018-06-13T14:02:26.036Z,11.57
2018-06-13T14:08:19.206Z,12.07
2018-06-13T14:10:52.428Z,10.43
2018-06-13T14:13:25.304Z,15.80
2018-06-13T14:16:05.302Z,7.97
2018-06-13T14:21:22.782Z,17.55
2018-06-13T14:23:55.821Z,19.77
2018-06-13T14:26:28.803Z,13.93
2018-06-13T14:29:01.568Z,9.38
2018-06-13T14:31:34.296Z,9.27
2018-06-13T14:34:07.281Z,8.07
2018-06-13T14:36:40.009Z,9.15
2018-06-13T14:39:13.880Z,13.03
2018-06-13T14:41:46.898Z,20.80
2018-06-13T14:44:20.228Z,7.37
2018-06-13T14:47:36.937Z,8.65
2018-06-13T14:50:11.612Z,8.70
2018-06-13T14:52:45.862Z,11.55
2018-06-13T14:55:17.972Z,6.15
2018-06-13T14:57:49.976Z,9.33
2018-06-13T15:00:22.058Z,5.17
2018-06-13T15:02:54.194Z,10.40
2018-06-13T15:05:27.170Z,7.05
2018-06-13T15:08:00.246Z,4.92
2018-06-13T15:10:32.496Z,8.03
2018-06-13T15:16:22.089Z,5.35
2018-06-13T15:22:16.859Z,11.73
2018-06-13T15:24:49.709Z,9.70
2018-06-13T15:27:22.670Z,6.47
2018-06-13T15:29:55.530Z,10.32
2018-06-13T15:32:28.424Z,5.42
2018-06-13T15:35:02.812Z,7.62
2018-06-13T15:37:40.108Z,6.50
2018-06-13T15:40:13.172Z,8.08
2018-06-13T15:42:46.225Z,5.47
2018-06-13T15:45:19.287Z,4.75
2018-06-13T15:47:52.279Z,6.37
2018-06-13T15:50:25.309Z,8.83
2018-06-13T15:52:58.954Z,10.08
2018-06-13T15:55:31.959Z,16.40
2018-06-13T15:58:04.910Z,6.03
2018-06-13T16:00:38.691Z,8.30
2018-06-13T16:03:12.327Z,5.50
2018-06-13T16:05:45.365Z,9.30
2018-06-13T16:08:23.193Z,15.75
2018-06-13T16:11:07.887Z,10.93
2018-06-13T16:13:42.197Z,8.85
2018-06-13T16:16:15.891Z,6.37
2018-06-13T16:18:56.273Z,7.97
2018-06-13T16:21:39.362Z,16.62
2018-06-13T16:24:18.475Z,14.00
2018-06-13T16:27:05.382Z,13.38
2018-06-13T16:29:43.869Z,11.20
2018-06-13T16:32:16.869Z,9.63
2018-06-13T16:34:52.882Z,8.70
2018-06-13T16:37:26.700Z,12.33
2018-06-13T16:40:03.353Z,11.00
2018-06-13T16:42:39.815Z,12.90
2018-06-13T16:45:16.819Z,10.60
2018-06-13T16:47:54.633Z,9.37
2018-06-13T16:50:41.034Z,7.30
2018-06-13T16:53:23.842Z,12.53
2018-06-13T16:59:25.772Z,32.07
2018-06-13T17:01:59.742Z,10.73
2018-06-13T17:04:33.995Z,9.47
2018-06-13T17:07:06.673Z,8.68
2018-06-13T17:09:39.861Z,9.17
2018-06-13T17:12:13.786Z,8.85
2018-06-13T17:14:47.884Z,10.28
2018-06-13T17:17:32.998Z,6.17
2018-06-13T17:20:06.940Z,9.13
2018-06-13T17:22:40.596Z,9.98
2018-06-13T17:25:13.828Z,9.05
2018-06-13T17:27:46.578Z,10.20
2018-06-13T17:30:19.020Z,19.75
2018-06-13T17:33:06.350Z,18.73
2018-06-13T17:36:01.224Z,15.30
2018-06-13T17:38:53.105Z,13.90
2018-06-13T17:41:28.023Z,13.53
2018-06-13T17:44:00.765Z,21.97
2018-06-13T17:46:35.203Z,15.28
2018-06-13T17:49:13.376Z,13.90
2018-06-13T17:51:51.189Z,15.68
2018-06-13T17:54:25.806Z,8.38
2018-06-13T17:57:03.027Z,16.45
2018-06-13T17:59:45.871Z,14.58
2018-06-13T18:02:27.474Z,9.13
2018-06-13T18:05:03.585Z,15.53
2018-06-13T18:08:05.017Z,10.40
2018-06-13T18:10:40.433Z,11.18
2018-06-13T18:13:23.268Z,9.83
2018-06-13T18:16:07.864Z,10.45
2018-06-13T18:18:42.223Z,6.85
2018-06-13T18:21:19.769Z,16.90
2018-06-13T18:23:54.409Z,12.58
2018-06-13T18:26:27.445Z,10.05
2018-06-13T18:29:01.119Z,12.33
2018-06-13T18:31:33.752Z,12.58
2018-06-13T18:34:06.739Z,9.25
2018-06-13T18:36:40.414Z,11.78
2018-06-13T18:39:15.804Z,12.23
2018-06-13T18:41:49.132Z,17.70
2018-06-13T18:44:21.877Z,9.38
2018-06-13T18:46:53.222Z,12.15
2018-06-13T18:49:26.086Z,8.90
2018-06-13T18:51:59.293Z,12.13
2018-06-13T18:54:32.455Z,11.00
2018-06-13T18:57:05.085Z,6.60
2018-06-13T18:59:39.451Z,7.03
2018-06-13T19:02:13.617Z,32.45
2018-06-13T19:04:47.628Z,9.23
2018-06-13T19:10:42.362Z,13.58
2018-06-13T19:16:35.785Z,13.58
2018-06-13T19:19:11.773Z,17.52
2018-06-13T19:21:45.459Z,16.20
2018-06-13T19:24:18.251Z,12.50
2018-06-13T19:26:54.406Z,10.88
2018-06-13T19:29:27.442Z,12.60
2018-06-13T19:32:01.295Z,11.63
2018-06-13T19:34:34.238Z,7.20
2018-06-13T19:37:06.991Z,16.47
2018-06-13T19:39:40.805Z,24.17
2018-06-13T19:42:14.521Z,26.47
2018-06-13T19:44:47.635Z,24.23
2018-06-13T19:47:26.971Z,16.20
2018-06-13T19:50:08.858Z,13.23
2018-06-13T19:55:24.266Z,16.50
2018-06-13T19:57:59.018Z,22.60
2018-06-13T20:00:43.915Z,23.07
2018-06-13T20:03:34.691Z,26.73
2018-06-13T20:06:14.661Z,20.10
2018-06-13T20:09:00.361Z,26.47
2018-06-13T20:11:33.349Z,21.83
2018-06-13T20:14:10.415Z,24.63
2018-06-13T20:17:00.664Z,25.17
2018-06-13T20:19:36.946Z,22.40
2018-06-13T20:22:14.881Z,23.60
2018-06-13T20:24:54.111Z,26.83
2018-06-13T20:27:35.723Z,25.53
2018-06-13T20:30:19.314Z,23.60
2018-06-13T20:32:52.562Z,32.37
2018-06-13T20:35:27.957Z,30.20
2018-06-13T20:38:01.155Z,27.97
2018-06-13T20:40:34.124Z,31.20
2018-06-13T20:43:22.572Z,30.00
2018-06-13T20:46:05.911Z,28.27
2018-06-13T20:48:47.993Z,23.50
2018-06-13T20:51:42.609Z,31.30
2018-06-13T20:54:15.441Z,25.50
2018-06-13T20:56:48.187Z,34.00
2018-06-13T20:59:22.149Z,29.47
2018-06-13T21:01:56.100Z,33.53
2018-06-13T21:04:28.968Z,37.83
2018-06-13T21:07:02.829Z,25.80
2018-06-13T21:09:35.683Z,40.87
2018-06-13T21:12:10.143Z,32.30
2018-06-13T21:14:42.859Z,29.07
2018-06-13T21:17:14.072Z,34.60
2018-06-13T21:19:48.745Z,46.40
2018-06-13T21:22:21.363Z,27.70
2018-06-13T21:24:54.892Z,247.43
2018-06-13T21:27:27.471Z,37.93
2018-06-13T21:30:00.354Z,31.33
2018-06-13T21:32:33.369Z,30.47
2018-06-13T21:35:04.829Z,27.90
2018-06-13T21:57:45.811Z,33.65
2018-06-13T22:15:59.054Z,29.60
2018-06-13T22:33:36.453Z,34.57
2018-06-13T22:36:09.131Z,33.40
2018-06-13T22:53:46.787Z,30.53
2018-06-13T22:56:19.486Z,28.47
2018-06-13T23:11:27.047Z,31.70
2018-06-13T23:13:59.643Z,27.63
2018-06-13T23:16:32.319Z,28.37
2018-06-13T23:19:10.479Z,29.17
2018-06-13T23:21:43.080Z,28.70
2018-06-13T23:24:15.756Z,24.97
2018-06-13T23:26:48.329Z,32.33
